sensor_id;sensor_type;location;lat;lon;timestamp;P1;durP1;ratioP1;P2;durP2;ratioP2
16514;SDS011;8370;52.556;7.970;2022-10-04T00:02:27;6.00;;;3.70;;
16514;SDS011;8370;52.556;7.970;2022-10-04T00:04:58;9.27;;;3.90;;
16514;SDS011;8370;52.556;7.970;2022-10-04T00:07:33;8.13;;;4.40;;
16514;SDS011;8370;52.556;7.970;2022-10-04T00:10:06;10.37;;;5.30;;
16514;SDS011;8370;52.556;7.970;2022-10-04T00:12:55;7.77;;;5.00;;
16514;SDS011;8370;52.556;7.970;2022-10-04T00:15:30;6.63;;;4.63;;
16514;SDS011;8370;52.556;7.970;2022-10-04T00:18:06;10.87;;;4.50;;
16514;SDS011;8370;52.556;7.970;2022-10-04T00:25:52;10.43;;;4.27;;
16514;SDS011;8370;52.556;7.970;2022-10-04T00:30:43;9.43;;;5.23;;
16514;SDS011;8370;52.556;7.970;2022-10-04T00:33:10;6.97;;;4.27;;
16514;SDS011;8370;52.556;7.970;2022-10-04T00:38:11;8.03;;;4.63;;
16514;SDS011;8370;52.556;7.970;2022-10-04T00:40:40;9.30;;;4.43;;
16514;SDS011;8370;52.556;7.970;2022-10-04T00:43:16;10.47;;;5.07;;
16514;SDS011;8370;52.556;7.970;2022-10-04T00:45:44;6.00;;;4.60;;
16514;SDS011;8370;52.556;7.970;2022-10-04T00:51:18;9.37;;;4.70;;
16514;SDS011;8370;52.556;7.970;2022-10-04T00:56:56;8.90;;;4.50;;
16514;SDS011;8370;52.556;7.970;2022-10-04T01:02:10;9.47;;;4.87;;
16514;SDS011;8370;52.556;7.970;2022-10-04T01:05:08;12.47;;;4.70;;
16514;SDS011;8370;52.556;7.970;2022-10-04T01:07:38;11.20;;;4.70;;
16514;SDS011;8370;52.556;7.970;2022-10-04T01:10:25;11.00;;;5.13;;
16514;SDS011;8370;52.556;7.970;2022-10-04T01:18:06;8.97;;;3.93;;
16514;SDS011;8370;52.556;7.970;2022-10-04T01:20:38;10.13;;;4.33;;
16514;SDS011;8370;52.556;7.970;2022-10-04T01:28:54;9.57;;;4.60;;
16514;SDS011;8370;52.556;7.970;2022-10-04T01:31:31;7.53;;;4.83;;
16514;SDS011;8370;52.556;7.970;2022-10-04T01:33:59;6.17;;;4.73;;
16514;SDS011;8370;52.556;7.970;2022-10-04T01:36:26;5.53;;;4.17;;
16514;SDS011;8370;52.556;7.970;2022-10-04T01:38:53;8.67;;;4.70;;
16514;SDS011;8370;52.556;7.970;2022-10-04T01:41:27;8.60;;;4.60;;
16514;SDS011;8370;52.556;7.970;2022-10-04T01:44:22;6.63;;;4.77;;
16514;SDS011;8370;52.556;7.970;2022-10-04T01:46:54;5.33;;;3.90;;
16514;SDS011;8370;52.556;7.970;2022-10-04T01:49:24;8.03;;;3.47;;
16514;SDS011;8370;52.556;7.970;2022-10-04T01:51:55;5.53;;;4.10;;
16514;SDS011;8370;52.556;7.970;2022-10-04T01:54:31;8.17;;;4.37;;
16514;SDS011;8370;52.556;7.970;2022-10-04T01:57:05;6.30;;;4.70;;
16514;SDS011;8370;52.556;7.970;2022-10-04T01:59:48;6.30;;;4.23;;
16514;SDS011;8370;52.556;7.970;2022-10-04T02:02:33;6.23;;;4.37;;
16514;SDS011;8370;52.556;7.970;2022-10-04T02:05:04;5.47;;;4.30;;
16514;SDS011;8370;52.556;7.970;2022-10-04T02:07:34;7.83;;;4.60;;
16514;SDS011;8370;52.556;7.970;2022-10-04T02:10:03;10.30;;;4.03;;
16514;SDS011;8370;52.556;7.970;2022-10-04T02:12:35;6.23;;;4.70;;
16514;SDS011;8370;52.556;7.970;2022-10-04T02:15:07;9.50;;;4.87;;
16514;SDS011;8370;52.556;7.970;2022-10-04T02:17:37;8.20;;;4.50;;
16514;SDS011;8370;52.556;7.970;2022-10-04T02:20:11;7.37;;;4.33;;
16514;SDS011;8370;52.556;7.970;2022-10-04T02:22:44;7.93;;;4.57;;
16514;SDS011;8370;52.556;7.970;2022-10-04T02:25:14;6.87;;;4.77;;
16514;SDS011;8370;52.556;7.970;2022-10-04T02:27:42;8.63;;;4.50;;
16514;SDS011;8370;52.556;7.970;2022-10-04T02:30:09;11.30;;;4.70;;
16514;SDS011;8370;52.556;7.970;2022-10-04T02:32:37;6.50;;;4.13;;
16514;SDS011;8370;52.556;7.970;2022-10-04T02:35:28;7.57;;;4.13;;
16514;SDS011;8370;52.556;7.970;2022-10-04T02:38:11;10.90;;;3.80;;
16514;SDS011;8370;52.556;7.970;2022-10-04T02:40:52;7.57;;;3.87;;
16514;SDS011;8370;52.556;7.970;2022-10-04T02:43:28;13.00;;;5.17;;
16514;SDS011;8370;52.556;7.970;2022-10-04T02:48:47;8.97;;;4.73;;
16514;SDS011;8370;52.556;7.970;2022-10-04T02:51:18;7.67;;;5.37;;
16514;SDS011;8370;52.556;7.970;2022-10-04T02:56:25;7.80;;;4.73;;
16514;SDS011;8370;52.556;7.970;2022-10-04T02:58:51;12.93;;;5.27;;
16514;SDS011;8370;52.556;7.970;2022-10-04T03:01:35;11.87;;;5.00;;
16514;SDS011;8370;52.556;7.970;2022-10-04T03:04:11;11.67;;;4.93;;
16514;SDS011;8370;52.556;7.970;2022-10-04T03:06:39;15.50;;;5.47;;
16514;SDS011;8370;52.556;7.970;2022-10-04T03:09:06;12.27;;;5.60;;
16514;SDS011;8370;52.556;7.970;2022-10-04T03:11:33;6.73;;;4.50;;
16514;SDS011;8370;52.556;7.970;2022-10-04T03:14:02;6.73;;;4.87;;
16514;SDS011;8370;52.556;7.970;2022-10-04T03:16:35;8.37;;;4.87;;
16514;SDS011;8370;52.556;7.970;2022-10-04T03:19:03;13.77;;;5.57;;
16514;SDS011;8370;52.556;7.970;2022-10-04T03:21:31;10.10;;;5.40;;
16514;SDS011;8370;52.556;7.970;2022-10-04T03:23:59;10.63;;;5.10;;
16514;SDS011;8370;52.556;7.970;2022-10-04T03:26:37;14.67;;;5.43;;
16514;SDS011;8370;52.556;7.970;2022-10-04T03:29:06;9.80;;;4.97;;
16514;SDS011;8370;52.556;7.970;2022-10-04T03:31:45;7.97;;;5.20;;
16514;SDS011;8370;52.556;7.970;2022-10-04T03:34:16;12.37;;;5.00;;
16514;SDS011;8370;52.556;7.970;2022-10-04T03:36:45;9.53;;;4.60;;
16514;SDS011;8370;52.556;7.970;2022-10-04T03:39:16;9.23;;;5.13;;
16514;SDS011;8370;52.556;7.970;2022-10-04T03:41:49;6.73;;;4.40;;
16514;SDS011;8370;52.556;7.970;2022-10-04T03:44:17;7.43;;;4.90;;
16514;SDS011;8370;52.556;7.970;2022-10-04T03:46:43;8.47;;;5.70;;
16514;SDS011;8370;52.556;7.970;2022-10-04T03:49:15;10.10;;;4.47;;
16514;SDS011;8370;52.556;7.970;2022-10-04T03:51:47;9.33;;;5.40;;
16514;SDS011;8370;52.556;7.970;2022-10-04T03:54:16;9.40;;;4.93;;
16514;SDS011;8370;52.556;7.970;2022-10-04T03:56:46;8.17;;;4.97;;
16514;SDS011;8370;52.556;7.970;2022-10-04T03:59:13;7.97;;;4.80;;
16514;SDS011;8370;52.556;7.970;2022-10-04T04:04:33;14.00;;;5.27;;
16514;SDS011;8370;52.556;7.970;2022-10-04T04:07:24;6.13;;;4.43;;
16514;SDS011;8370;52.556;7.970;2022-10-04T04:10:03;12.27;;;4.70;;
16514;SDS011;8370;52.556;7.970;2022-10-04T04:12:41;11.00;;;4.67;;
16514;SDS011;8370;52.556;7.970;2022-10-04T04:15:12;9.80;;;4.63;;
16514;SDS011;8370;52.556;7.970;2022-10-04T04:17:46;9.73;;;4.60;;
16514;SDS011;8370;52.556;7.970;2022-10-04T04:22:59;7.33;;;5.07;;
16514;SDS011;8370;52.556;7.970;2022-10-04T04:25:36;9.27;;;5.00;;
16514;SDS011;8370;52.556;7.970;2022-10-04T04:30:48;7.93;;;4.87;;
16514;SDS011;8370;52.556;7.970;2022-10-04T04:33:20;8.23;;;4.30;;
16514;SDS011;8370;52.556;7.970;2022-10-04T04:35:54;13.77;;;5.33;;
16514;SDS011;8370;52.556;7.970;2022-10-04T04:38:26;9.53;;;4.77;;
16514;SDS011;8370;52.556;7.970;2022-10-04T04:40:52;5.00;;;4.20;;
16514;SDS011;8370;52.556;7.970;2022-10-04T04:43:23;8.60;;;4.60;;
16514;SDS011;8370;52.556;7.970;2022-10-04T04:45:51;7.43;;;4.93;;
16514;SDS011;8370;52.556;7.970;2022-10-04T04:48:19;9.00;;;4.57;;
16514;SDS011;8370;52.556;7.970;2022-10-04T04:50:48;8.37;;;4.73;;
16514;SDS011;8370;52.556;7.970;2022-10-04T04:53:26;7.47;;;4.47;;
16514;SDS011;8370;52.556;7.970;2022-10-04T04:58:29;6.37;;;4.13;;
16514;SDS011;8370;52.556;7.970;2022-10-04T05:03:37;8.40;;;4.10;;
16514;SDS011;8370;52.556;7.970;2022-10-04T05:06:03;12.33;;;4.33;;
16514;SDS011;8370;52.556;7.970;2022-10-04T05:08:49;8.90;;;5.13;;
16514;SDS011;8370;52.556;7.970;2022-10-04T05:11:14;11.70;;;5.07;;
16514;SDS011;8370;52.556;7.970;2022-10-04T05:16:46;7.03;;;4.20;;
16514;SDS011;8370;52.556;7.970;2022-10-04T05:19:18;10.70;;;4.13;;
16514;SDS011;8370;52.556;7.970;2022-10-04T05:21:48;6.73;;;4.40;;
16514;SDS011;8370;52.556;7.970;2022-10-04T05:24:19;10.60;;;4.77;;
16514;SDS011;8370;52.556;7.970;2022-10-04T05:27:02;5.80;;;4.50;;
16514;SDS011;8370;52.556;7.970;2022-10-04T05:29:37;7.83;;;4.27;;
16514;SDS011;8370;52.556;7.970;2022-10-04T05:34:50;10.73;;;4.87;;
16514;SDS011;8370;52.556;7.970;2022-10-04T05:43:44;14.60;;;6.07;;
16514;SDS011;8370;52.556;7.970;2022-10-04T05:46:25;7.10;;;4.23;;
16514;SDS011;8370;52.556;7.970;2022-10-04T05:49:00;10.87;;;4.90;;
16514;SDS011;8370;52.556;7.970;2022-10-04T05:51:52;8.50;;;4.37;;
16514;SDS011;8370;52.556;7.970;2022-10-04T05:54:25;10.30;;;5.50;;
16514;SDS011;8370;52.556;7.970;2022-10-04T05:59:59;9.03;;;5.63;;
16514;SDS011;8370;52.556;7.970;2022-10-04T06:08:23;9.40;;;5.70;;
16514;SDS011;8370;52.556;7.970;2022-10-04T06:11:28;15.07;;;5.67;;
16514;SDS011;8370;52.556;7.970;2022-10-04T06:24:55;12.43;;;6.90;;
16514;SDS011;8370;52.556;7.970;2022-10-04T06:36:21;10.30;;;7.00;;
16514;SDS011;8370;52.556;7.970;2022-10-04T06:39:26;13.30;;;7.07;;
16514;SDS011;8370;52.556;7.970;2022-10-04T06:42:09;8.00;;;6.50;;
16514;SDS011;8370;52.556;7.970;2022-10-04T06:50:41;12.87;;;6.97;;
16514;SDS011;8370;52.556;7.970;2022-10-04T07:01:35;17.90;;;7.93;;
16514;SDS011;8370;52.556;7.970;2022-10-04T07:04:19;12.80;;;7.20;;
16514;SDS011;8370;52.556;7.970;2022-10-04T07:07:14;11.67;;;6.97;;
16514;SDS011;8370;52.556;7.970;2022-10-04T07:15:44;15.63;;;8.17;;
16514;SDS011;8370;52.556;7.970;2022-10-04T07:18:17;13.50;;;7.97;;
16514;SDS011;8370;52.556;7.970;2022-10-04T07:20:48;11.97;;;7.43;;
16514;SDS011;8370;52.556;7.970;2022-10-04T07:23:49;15.07;;;8.50;;
16514;SDS011;8370;52.556;7.970;2022-10-04T07:26:47;15.93;;;7.90;;
16514;SDS011;8370;52.556;7.970;2022-10-04T07:29:14;15.43;;;8.20;;
16514;SDS011;8370;52.556;7.970;2022-10-04T07:31:50;16.00;;;7.83;;
16514;SDS011;8370;52.556;7.970;2022-10-04T07:34:36;13.97;;;8.70;;
16514;SDS011;8370;52.556;7.970;2022-10-04T07:37:10;14.40;;;7.97;;
16514;SDS011;8370;52.556;7.970;2022-10-04T07:45:24;18.53;;;9.73;;
16514;SDS011;8370;52.556;7.970;2022-10-04T07:48:03;21.10;;;9.23;;
16514;SDS011;8370;52.556;7.970;2022-10-04T07:50:45;18.30;;;8.90;;
16514;SDS011;8370;52.556;7.970;2022-10-04T07:53:38;13.73;;;8.47;;
16514;SDS011;8370;52.556;7.970;2022-10-04T07:56:30;10.43;;;7.47;;
16514;SDS011;8370;52.556;7.970;2022-10-04T08:01:47;14.77;;;8.40;;
16514;SDS011;8370;52.556;7.970;2022-10-04T08:04:30;13.97;;;8.50;;
16514;SDS011;8370;52.556;7.970;2022-10-04T08:07:06;17.40;;;8.97;;
16514;SDS011;8370;52.556;7.970;2022-10-04T08:09:55;15.07;;;8.67;;
16514;SDS011;8370;52.556;7.970;2022-10-04T08:12:36;14.37;;;8.50;;
16514;SDS011;8370;52.556;7.970;2022-10-04T08:15:23;12.37;;;8.03;;
16514;SDS011;8370;52.556;7.970;2022-10-04T08:23:32;16.17;;;8.40;;
16514;SDS011;8370;52.556;7.970;2022-10-04T08:29:07;11.93;;;7.97;;
16514;SDS011;8370;52.556;7.970;2022-10-04T08:32:19;9.97;;;6.33;;
16514;SDS011;8370;52.556;7.970;2022-10-04T08:38:25;14.33;;;6.20;;
16514;SDS011;8370;52.556;7.970;2022-10-04T08:50:05;10.37;;;5.33;;
16514;SDS011;8370;52.556;7.970;2022-10-04T08:52:40;10.13;;;5.20;;
16514;SDS011;8370;52.556;7.970;2022-10-04T08:55:39;11.13;;;5.07;;
16514;SDS011;8370;52.556;7.970;2022-10-04T08:58:33;8.30;;;4.63;;
16514;SDS011;8370;52.556;7.970;2022-10-04T09:23:16;12.17;;;4.17;;
16514;SDS011;8370;52.556;7.970;2022-10-04T09:52:38;5.10;;;3.17;;
16514;SDS011;8370;52.556;7.970;2022-10-04T09:58:14;6.83;;;3.03;;
16514;SDS011;8370;52.556;7.970;2022-10-04T10:01:04;7.37;;;3.17;;
16514;SDS011;8370;52.556;7.970;2022-10-04T10:03:45;6.33;;;3.43;;
16514;SDS011;8370;52.556;7.970;2022-10-04T10:09:24;7.83;;;2.73;;
16514;SDS011;8370;52.556;7.970;2022-10-04T10:21:13;3.97;;;1.87;;
16514;SDS011;8370;52.556;7.970;2022-10-04T10:24:12;4.27;;;2.33;;
16514;SDS011;8370;52.556;7.970;2022-10-04T10:26:55;3.70;;;2.27;;
16514;SDS011;8370;52.556;7.970;2022-10-04T10:35:26;8.57;;;2.97;;
16514;SDS011;8370;52.556;7.970;2022-10-04T11:00:05;5.63;;;2.33;;
16514;SDS011;8370;52.556;7.970;2022-10-04T11:05:26;5.13;;;2.20;;
16514;SDS011;8370;52.556;7.970;2022-10-04T11:20:24;6.07;;;2.40;;
16514;SDS011;8370;52.556;7.970;2022-10-04T11:23:08;7.85;;;2.45;;
16514;SDS011;8370;52.556;7.970;2022-10-04T11:28:40;3.97;;;2.03;;
16514;SDS011;8370;52.556;7.970;2022-10-04T11:36:58;5.82;;;2.40;;
16514;SDS011;8370;52.556;7.970;2022-10-04T12:32:16;7.50;;;2.83;;
16514;SDS011;8370;52.556;7.970;2022-10-04T12:35:15;6.65;;;1.98;;
16514;SDS011;8370;52.556;7.970;2022-10-04T12:41:20;6.40;;;2.78;;
16514;SDS011;8370;52.556;7.970;2022-10-04T12:59:56;11.18;;;3.90;;
16514;SDS011;8370;52.556;7.970;2022-10-04T13:02:44;8.18;;;3.40;;
16514;SDS011;8370;52.556;7.970;2022-10-04T13:08:57;7.20;;;2.95;;
16514;SDS011;8370;52.556;7.970;2022-10-04T13:17:47;7.25;;;2.42;;
16514;SDS011;8370;52.556;7.970;2022-10-04T13:26:11;4.47;;;2.38;;
16514;SDS011;8370;52.556;7.970;2022-10-04T13:29:05;5.65;;;2.55;;
16514;SDS011;8370;52.556;7.970;2022-10-04T13:31:55;6.20;;;2.50;;
16514;SDS011;8370;52.556;7.970;2022-10-04T13:34:29;6.15;;;2.58;;
16514;SDS011;8370;52.556;7.970;2022-10-04T13:37:00;5.45;;;3.05;;
16514;SDS011;8370;52.556;7.970;2022-10-04T13:42:27;7.33;;;2.70;;
16514;SDS011;8370;52.556;7.970;2022-10-04T13:48:37;7.60;;;2.25;;
16514;SDS011;8370;52.556;7.970;2022-10-04T13:51:24;5.80;;;2.55;;
16514;SDS011;8370;52.556;7.970;2022-10-04T13:59:33;10.10;;;2.13;;
16514;SDS011;8370;52.556;7.970;2022-10-04T14:11:18;6.00;;;2.53;;
16514;SDS011;8370;52.556;7.970;2022-10-04T14:31:22;3.83;;;2.30;;
16514;SDS011;8370;52.556;7.970;2022-10-04T14:34:24;6.47;;;2.80;;
16514;SDS011;8370;52.556;7.970;2022-10-04T14:37:12;6.28;;;2.60;;
16514;SDS011;8370;52.556;7.970;2022-10-04T14:40:03;7.30;;;2.67;;
16514;SDS011;8370;52.556;7.970;2022-10-04T14:45:53;10.07;;;2.70;;
16514;SDS011;8370;52.556;7.970;2022-10-04T14:48:46;6.70;;;2.63;;
16514;SDS011;8370;52.556;7.970;2022-10-04T14:54:10;6.93;;;2.58;;
16514;SDS011;8370;52.556;7.970;2022-10-04T14:56:51;6.78;;;2.38;;
16514;SDS011;8370;52.556;7.970;2022-10-04T14:59:26;4.55;;;2.25;;
16514;SDS011;8370;52.556;7.970;2022-10-04T15:02:22;9.93;;;3.20;;
16514;SDS011;8370;52.556;7.970;2022-10-04T15:05:53;11.82;;;3.20;;
16514;SDS011;8370;52.556;7.970;2022-10-04T15:16:35;7.87;;;2.73;;
16514;SDS011;8370;52.556;7.970;2022-10-04T15:19:07;8.87;;;2.97;;
16514;SDS011;8370;52.556;7.970;2022-10-04T15:21:42;3.80;;;2.30;;
16514;SDS011;8370;52.556;7.970;2022-10-04T15:24:19;6.27;;;2.60;;
16514;SDS011;8370;52.556;7.970;2022-10-04T15:38:12;5.07;;;2.60;;
16514;SDS011;8370;52.556;7.970;2022-10-04T15:41:05;8.93;;;3.25;;
16514;SDS011;8370;52.556;7.970;2022-10-04T15:43:45;6.37;;;2.70;;
16514;SDS011;8370;52.556;7.970;2022-10-04T16:00:45;8.57;;;3.10;;
16514;SDS011;8370;52.556;7.970;2022-10-04T16:03:31;6.77;;;2.53;;
16514;SDS011;8370;52.556;7.970;2022-10-04T16:08:42;8.00;;;2.87;;
16514;SDS011;8370;52.556;7.970;2022-10-04T16:11:45;7.70;;;2.90;;
16514;SDS011;8370;52.556;7.970;2022-10-04T16:14:39;13.00;;;3.50;;
16514;SDS011;8370;52.556;7.970;2022-10-04T16:25:51;5.50;;;2.67;;
16514;SDS011;8370;52.556;7.970;2022-10-04T16:36:47;3.50;;;2.43;;
16514;SDS011;8370;52.556;7.970;2022-10-04T16:39:34;8.57;;;2.73;;
16514;SDS011;8370;52.556;7.970;2022-10-04T16:47:36;7.00;;;2.80;;
16514;SDS011;8370;52.556;7.970;2022-10-04T16:50:03;5.20;;;2.97;;
16514;SDS011;8370;52.556;7.970;2022-10-04T16:52:37;4.43;;;2.63;;
16514;SDS011;8370;52.556;7.970;2022-10-04T17:06:30;22.77;;;9.77;;
16514;SDS011;8370;52.556;7.970;2022-10-04T17:09:16;11.63;;;6.40;;
16514;SDS011;8370;52.556;7.970;2022-10-04T17:12:00;14.17;;;7.00;;
16514;SDS011;8370;52.556;7.970;2022-10-04T17:17:55;11.50;;;5.60;;
16514;SDS011;8370;52.556;7.970;2022-10-04T17:23:21;11.17;;;5.17;;
16514;SDS011;8370;52.556;7.970;2022-10-04T17:31:16;7.13;;;4.00;;
16514;SDS011;8370;52.556;7.970;2022-10-04T17:41:55;8.43;;;3.57;;
16514;SDS011;8370;52.556;7.970;2022-10-04T17:44:47;7.47;;;4.00;;
16514;SDS011;8370;52.556;7.970;2022-10-04T17:47:56;8.20;;;4.93;;
16514;SDS011;8370;52.556;7.970;2022-10-04T17:51:02;10.47;;;5.63;;
16514;SDS011;8370;52.556;7.970;2022-10-04T17:53:50;10.40;;;5.40;;
16514;SDS011;8370;52.556;7.970;2022-10-04T17:57:06;7.50;;;4.13;;
16514;SDS011;8370;52.556;7.970;2022-10-04T17:59:37;5.80;;;4.20;;
16514;SDS011;8370;52.556;7.970;2022-10-04T18:04:55;13.83;;;6.03;;
16514;SDS011;8370;52.556;7.970;2022-10-04T18:07:25;20.97;;;8.27;;
16514;SDS011;8370;52.556;7.970;2022-10-04T18:10:13;15.73;;;7.00;;
16514;SDS011;8370;52.556;7.970;2022-10-04T18:12:49;10.47;;;4.93;;
16514;SDS011;8370;52.556;7.970;2022-10-04T18:18:13;9.27;;;4.80;;
16514;SDS011;8370;52.556;7.970;2022-10-04T18:23:18;11.70;;;5.70;;
16514;SDS011;8370;52.556;7.970;2022-10-04T18:25:49;7.77;;;4.10;;
16514;SDS011;8370;52.556;7.970;2022-10-04T18:28:19;10.73;;;4.53;;
16514;SDS011;8370;52.556;7.970;2022-10-04T18:33:16;8.10;;;4.07;;
16514;SDS011;8370;52.556;7.970;2022-10-04T18:38:29;7.10;;;3.97;;
16514;SDS011;8370;52.556;7.970;2022-10-04T18:41:15;9.60;;;4.23;;
16514;SDS011;8370;52.556;7.970;2022-10-04T18:44:02;8.40;;;4.80;;
16514;SDS011;8370;52.556;7.970;2022-10-04T18:46:37;9.83;;;5.00;;
16514;SDS011;8370;52.556;7.970;2022-10-04T18:54:48;10.47;;;5.10;;
16514;SDS011;8370;52.556;7.970;2022-10-04T19:00:22;10.93;;;5.60;;
16514;SDS011;8370;52.556;7.970;2022-10-04T19:05:58;9.40;;;4.63;;
16514;SDS011;8370;52.556;7.970;2022-10-04T19:11:18;10.73;;;4.77;;
16514;SDS011;8370;52.556;7.970;2022-10-04T19:14:00;6.97;;;4.93;;
16514;SDS011;8370;52.556;7.970;2022-10-04T19:25:46;9.43;;;5.70;;
16514;SDS011;8370;52.556;7.970;2022-10-04T19:28:18;7.70;;;5.20;;
16514;SDS011;8370;52.556;7.970;2022-10-04T19:33:49;8.80;;;5.60;;
16514;SDS011;8370;52.556;7.970;2022-10-04T19:36:37;11.30;;;6.07;;
16514;SDS011;8370;52.556;7.970;2022-10-04T19:42:02;9.77;;;5.77;;
16514;SDS011;8370;52.556;7.970;2022-10-04T19:50:02;10.67;;;6.10;;
16514;SDS011;8370;52.556;7.970;2022-10-04T19:52:40;9.27;;;5.57;;
16514;SDS011;8370;52.556;7.970;2022-10-04T19:55:20;9.60;;;6.80;;
16514;SDS011;8370;52.556;7.970;2022-10-04T19:58:18;12.57;;;6.43;;
16514;SDS011;8370;52.556;7.970;2022-10-04T20:00:56;9.87;;;6.07;;
16514;SDS011;8370;52.556;7.970;2022-10-04T20:03:22;13.60;;;6.40;;
16514;SDS011;8370;52.556;7.970;2022-10-04T20:05:49;9.93;;;5.40;;
16514;SDS011;8370;52.556;7.970;2022-10-04T20:08:43;11.93;;;6.30;;
16514;SDS011;8370;52.556;7.970;2022-10-04T20:11:18;11.23;;;6.30;;
16514;SDS011;8370;52.556;7.970;2022-10-04T20:14:27;11.23;;;7.00;;
16514;SDS011;8370;52.556;7.970;2022-10-04T20:22:51;12.00;;;5.90;;
16514;SDS011;8370;52.556;7.970;2022-10-04T20:24:50;9.70;;;5.67;;
16514;SDS011;8370;52.556;7.970;2022-10-04T20:34:50;9.67;;;6.07;;
16514;SDS011;8370;52.556;7.970;2022-10-04T20:37:17;11.10;;;5.63;;
16514;SDS011;8370;52.556;7.970;2022-10-04T20:42:09;11.90;;;6.03;;
16514;SDS011;8370;52.556;7.970;2022-10-04T20:44:59;11.53;;;5.90;;
16514;SDS011;8370;52.556;7.970;2022-10-04T20:47:38;9.47;;;5.87;;
16514;SDS011;8370;52.556;7.970;2022-10-04T20:52:48;12.17;;;5.87;;
16514;SDS011;8370;52.556;7.970;2022-10-04T20:55:24;11.47;;;5.77;;
16514;SDS011;8370;52.556;7.970;2022-10-04T20:57:56;10.17;;;5.93;;
16514;SDS011;8370;52.556;7.970;2022-10-04T21:00:24;12.73;;;5.87;;
16514;SDS011;8370;52.556;7.970;2022-10-04T21:05:42;9.90;;;5.93;;
16514;SDS011;8370;52.556;7.970;2022-10-04T21:08:26;9.80;;;5.43;;
16514;SDS011;8370;52.556;7.970;2022-10-04T21:13:40;9.67;;;6.13;;
16514;SDS011;8370;52.556;7.970;2022-10-04T21:16:06;13.20;;;6.53;;
16514;SDS011;8370;52.556;7.970;2022-10-04T21:18:32;12.87;;;6.20;;
16514;SDS011;8370;52.556;7.970;2022-10-04T21:20:57;13.90;;;6.20;;
16514;SDS011;8370;52.556;7.970;2022-10-04T21:23:30;11.07;;;6.10;;
16514;SDS011;8370;52.556;7.970;2022-10-04T21:28:52;11.43;;;5.93;;
16514;SDS011;8370;52.556;7.970;2022-10-04T21:31:21;12.13;;;5.90;;
16514;SDS011;8370;52.556;7.970;2022-10-04T21:33:46;12.40;;;5.97;;
16514;SDS011;8370;52.556;7.970;2022-10-04T21:36:12;13.90;;;6.27;;
16514;SDS011;8370;52.556;7.970;2022-10-04T21:38:37;10.87;;;6.40;;
16514;SDS011;8370;52.556;7.970;2022-10-04T21:41:03;13.17;;;6.53;;
16514;SDS011;8370;52.556;7.970;2022-10-04T21:43:29;8.60;;;5.90;;
16514;SDS011;8370;52.556;7.970;2022-10-04T21:45:54;7.83;;;5.57;;
16514;SDS011;8370;52.556;7.970;2022-10-04T21:48:20;9.20;;;5.93;;
16514;SDS011;8370;52.556;7.970;2022-10-04T21:50:47;11.77;;;5.90;;
16514;SDS011;8370;52.556;7.970;2022-10-04T21:53:14;13.37;;;6.80;;
16514;SDS011;8370;52.556;7.970;2022-10-04T21:55:40;14.37;;;6.53;;
16514;SDS011;8370;52.556;7.970;2022-10-04T21:58:05;9.67;;;6.30;;
16514;SDS011;8370;52.556;7.970;2022-10-04T22:00:31;14.40;;;7.37;;
16514;SDS011;8370;52.556;7.970;2022-10-04T22:02:58;12.10;;;6.43;;
16514;SDS011;8370;52.556;7.970;2022-10-04T22:05:23;12.30;;;6.40;;
16514;SDS011;8370;52.556;7.970;2022-10-04T22:07:49;11.03;;;6.90;;
16514;SDS011;8370;52.556;7.970;2022-10-04T22:10:15;13.00;;;6.63;;
16514;SDS011;8370;52.556;7.970;2022-10-04T22:12:41;9.33;;;5.60;;
16514;SDS011;8370;52.556;7.970;2022-10-04T22:15:06;13.07;;;6.27;;
16514;SDS011;8370;52.556;7.970;2022-10-04T22:17:32;8.57;;;5.33;;
16514;SDS011;8370;52.556;7.970;2022-10-04T22:19:58;11.03;;;6.20;;
16514;SDS011;8370;52.556;7.970;2022-10-04T22:22:23;10.97;;;6.30;;
16514;SDS011;8370;52.556;7.970;2022-10-04T22:24:49;11.13;;;6.20;;
16514;SDS011;8370;52.556;7.970;2022-10-04T22:27:15;15.50;;;7.47;;
16514;SDS011;8370;52.556;7.970;2022-10-04T22:29:43;12.53;;;6.83;;
16514;SDS011;8370;52.556;7.970;2022-10-04T22:32:13;11.37;;;6.60;;
16514;SDS011;8370;52.556;7.970;2022-10-04T22:34:46;10.83;;;6.23;;
16514;SDS011;8370;52.556;7.970;2022-10-04T22:37:12;13.13;;;6.77;;
16514;SDS011;8370;52.556;7.970;2022-10-04T22:39:37;13.47;;;6.27;;
16514;SDS011;8370;52.556;7.970;2022-10-04T22:42:03;14.90;;;6.50;;
16514;SDS011;8370;52.556;7.970;2022-10-04T22:44:35;13.47;;;6.37;;
16514;SDS011;8370;52.556;7.970;2022-10-04T22:47:03;10.07;;;6.30;;
16514;SDS011;8370;52.556;7.970;2022-10-04T22:49:33;10.77;;;5.60;;
16514;SDS011;8370;52.556;7.970;2022-10-04T22:52:01;13.33;;;6.40;;
16514;SDS011;8370;52.556;7.970;2022-10-04T22:54:35;10.23;;;6.37;;
16514;SDS011;8370;52.556;7.970;2022-10-04T22:57:03;13.27;;;6.10;;
16514;SDS011;8370;52.556;7.970;2022-10-04T22:59:36;11.13;;;6.10;;
16514;SDS011;8370;52.556;7.970;2022-10-04T23:02:05;12.30;;;5.97;;
16514;SDS011;8370;52.556;7.970;2022-10-04T23:05:10;12.30;;;6.63;;
16514;SDS011;8370;52.556;7.970;2022-10-04T23:07:44;9.93;;;5.83;;
16514;SDS011;8370;52.556;7.970;2022-10-04T23:10:11;10.67;;;5.30;;
16514;SDS011;8370;52.556;7.970;2022-10-04T23:12:38;12.00;;;5.90;;
16514;SDS011;8370;52.556;7.970;2022-10-04T23:15:05;8.40;;;5.43;;
16514;SDS011;8370;52.556;7.970;2022-10-04T23:17:35;9.70;;;5.53;;
16514;SDS011;8370;52.556;7.970;2022-10-04T23:22:37;11.10;;;6.47;;
16514;SDS011;8370;52.556;7.970;2022-10-04T23:25:14;11.10;;;6.40;;
16514;SDS011;8370;52.556;7.970;2022-10-04T23:27:42;15.30;;;6.97;;
16514;SDS011;8370;52.556;7.970;2022-10-04T23:30:09;10.77;;;6.00;;
16514;SDS011;8370;52.556;7.970;2022-10-04T23:32:46;10.80;;;6.67;;
16514;SDS011;8370;52.556;7.970;2022-10-04T23:35:15;10.13;;;6.20;;
16514;SDS011;8370;52.556;7.970;2022-10-04T23:37:43;9.93;;;6.40;;
16514;SDS011;8370;52.556;7.970;2022-10-04T23:40:10;12.07;;;6.80;;
16514;SDS011;8370;52.556;7.970;2022-10-04T23:42:37;9.40;;;6.27;;
16514;SDS011;8370;52.556;7.970;2022-10-04T23:45:17;14.07;;;7.03;;
16514;SDS011;8370;52.556;7.970;2022-10-04T23:47:45;11.90;;;6.07;;
16514;SDS011;8370;52.556;7.970;2022-10-04T23:52:49;9.23;;;5.90;;
16514;SDS011;8370;52.556;7.970;2022-10-04T23:55:23;11.60;;;7.00;;
16514;SDS011;8370;52.556;7.970;2022-10-04T23:57:51;11.60;;;6.60;;
